Time;durP1;ratioP1;P1;durP2;ratioP2;P2;SDS_P1;SDS_P2;PMS_P1;PMS_P2;Temp;Humidity;BMP_temperature;BMP_pressure;BME280_temperature;BME280_humidity;BME280_pressure;Samples;Min_cycle;Max_cycle;Signal;HPM_P1;HPM_P2
2022/04/17 00:01:23;;;;;;;5.33;5.03;;;4.20;99.90;;;4.95;65.42;99185.34;5225005;28;20257;-51
2022/04/17 00:03:57;;;;;;;6.00;5.70;;;4.20;99.90;;;4.88;66.62;99188.91;5227147;28;20687;-54
2022/04/17 00:06:30;;;;;;;5.87;5.37;;;4.10;99.90;;;4.91;65.27;99178.19;5226693;28;20264;-53
2022/04/17 00:09:04;;;;;;;6.07;5.67;;;4.10;99.90;;;4.81;66.17;99186.53;5226710;28;20201;-52
2022/04/17 00:11:38;;;;;;;5.50;5.10;;;4.00;99.90;;;4.79;65.75;99187.09;5224816;28;20245;-53
2022/04/17 00:14:13;;;;;;;5.00;4.70;;;4.00;99.90;;;4.84;65.49;99183.41;5225375;28;20258;-51
2022/04/17 00:16:46;;;;;;;5.43;5.03;;;4.10;99.90;;;4.81;63.77;99181.47;5225646;28;20309;-56
2022/04/17 00:19:19;;;;;;;5.63;5.13;;;4.10;98.70;;;4.78;64.50;99176.09;5226312;28;20222;-55
2022/04/17 00:21:52;;;;;;;5.17;4.77;;;4.10;99.30;;;4.81;64.28;99171.31;5226950;28;20674;-55
2022/04/17 00:24:27;;;;;;;5.30;4.90;;;4.10;99.10;;;4.84;64.91;99163.16;5226371;28;20247;-53
2022/04/17 00:27:00;;;;;;;5.43;5.00;;;4.20;99.50;;;4.89;64.23;99162.84;5222239;28;20204;-52
2022/04/17 00:29:40;;;;;;;5.50;5.10;;;4.20;98.90;;;4.91;65.23;99158.81;5224393;28;20237;-53
2022/04/17 00:32:13;;;;;;;5.47;5.07;;;4.30;99.80;;;4.80;63.46;99166.09;5223757;28;20225;-54
2022/04/17 00:34:46;;;;;;;5.20;4.90;;;4.10;98.30;;;4.84;63.85;99153.91;5221639;28;20680;-51
2022/04/17 00:37:19;;;;;;;5.07;4.70;;;4.10;98.80;;;4.88;64.34;99152.56;5225033;28;20291;-51
2022/04/17 00:39:52;;;;;;;5.13;4.83;;;4.20;99.00;;;4.95;64.69;99152.41;5225399;28;20233;-51
2022/04/17 00:42:26;;;;;;;5.30;5.00;;;4.30;99.40;;;4.88;63.74;99152.56;5223981;28;20250;-50
2022/04/17 00:45:00;;;;;;;5.50;5.10;;;4.20;98.20;;;4.83;63.11;99152.09;5226385;28;20253;-52
2022/04/17 00:47:33;;;;;;;5.03;4.73;;;4.10;98.10;;;4.86;63.42;99151.50;5226593;28;20234;-52
2022/04/17 00:50:08;;;;;;;5.10;4.73;;;4.10;98.60;;;4.81;63.85;99148.53;5225691;28;20200;-54
2022/04/17 00:52:42;;;;;;;5.00;4.70;;;4.10;98.90;;;4.79;63.29;99146.59;5226905;28;20659;-52
2022/04/17 00:55:16;;;;;;;5.00;4.67;;;4.00;98.40;;;4.86;63.82;99147.31;5224273;28;20228;-51
2022/04/17 00:57:50;;;;;;;6.07;5.67;;;4.10;99.20;;;4.86;64.57;99144.78;5227660;28;20204;-51
2022/04/17 01:00:24;;;;;;;5.50;5.03;;;4.20;99.30;;;4.82;64.13;99140.19;5219655;28;20300;-54
2022/04/17 01:02:57;;;;;;;5.27;4.90;;;4.10;99.00;;;4.56;63.83;99136.69;5226012;28;20287;-54
2022/04/17 01:05:31;;;;;;;5.10;4.80;;;3.80;98.80;;;4.44;64.59;99132.16;5225822;28;20217;-54
2022/04/17 01:08:04;;;;;;;5.53;5.13;;;3.80;99.30;;;4.43;64.40;99127.81;5226139;28;20340;-51
2022/04/17 01:10:38;;;;;;;5.27;4.87;;;3.70;99.00;;;4.40;64.55;99127.50;5225380;28;20285;-52
2022/04/17 01:13:13;;;;;;;5.00;4.70;;;3.70;99.30;;;4.41;64.83;99130.97;5225687;28;20292;-51
2022/04/17 01:15:48;;;;;;;5.53;5.13;;;3.70;99.40;;;4.35;65.08;99130.31;5230060;28;20396;-55
2022/04/17 01:18:21;;;;;;;5.60;5.20;;;3.60;99.50;;;4.36;64.71;99119.47;5229179;28;20339;-52
2022/04/17 01:20:55;;;;;;;5.20;4.90;;;3.60;99.60;;;4.34;65.38;99118.41;5226516;28;20197;-53
2022/04/17 01:29:11;;;;;;;5.50;5.00;;;3.40;99.50;;;4.03;65.70;99113.69;5224957;28;20299;-54
2022/04/17 01:31:44;;;;;;;5.83;5.33;;;3.40;99.50;;;4.01;65.13;99106.66;5224115;28;20302;-53
2022/04/17 01:34:18;;;;;;;5.13;4.83;;;3.40;99.60;;;4.18;65.79;99101.69;5225710;28;20227;-55
2022/04/17 01:36:52;;;;;;;5.53;5.23;;;3.50;99.90;;;4.29;66.12;99107.81;5224772;28;20242;-54
2022/04/17 01:39:27;;;;;;;5.33;5.03;;;3.60;99.90;;;4.32;66.80;99115.75;5224758;28;20304;-52
2022/04/17 01:42:01;;;;;;;6.17;5.77;;;3.70;99.90;;;4.37;65.81;99099.38;5225440;28;20734;-51
2022/04/17 01:44:34;;;;;;;5.83;5.43;;;3.70;99.90;;;4.37;66.76;99101.00;5224906;28;20239;-51
2022/04/17 01:47:07;;;;;;;5.57;5.17;;;3.70;99.90;;;4.34;66.19;99101.59;5225528;28;20203;-55
2022/04/17 01:49:41;;;;;;;5.50;5.10;;;3.70;99.70;;;4.39;65.85;99097.00;5222402;28;20387;-52
2022/04/17 01:52:14;;;;;;;5.87;5.50;;;3.70;99.90;;;4.27;65.04;99097.56;5224270;28;20208;-53
2022/04/17 01:54:48;;;;;;;5.40;5.00;;;3.70;99.30;;;4.31;65.36;99098.75;5220668;28;20304;-54
2022/04/17 01:57:21;;;;;;;5.73;5.33;;;3.60;99.70;;;4.31;64.94;99095.34;5225558;28;20201;-51
2022/04/17 01:59:55;;;;;;;5.43;5.03;;;3.70;99.10;;;4.25;63.78;99098.13;5225383;28;20240;-51
2022/04/17 02:02:28;;;;;;;6.83;5.70;;;3.60;98.60;;;4.23;64.25;99092.91;5224180;28;20691;-54
2022/04/17 02:05:01;;;;;;;5.73;5.33;;;3.60;98.70;;;4.17;64.13;99088.88;5224201;28;20295;-52
2022/04/17 02:07:35;;;;;;;5.90;5.47;;;3.60;98.50;;;4.17;63.89;99088.88;5225690;28;20643;-51
2022/04/17 02:10:14;;;;;;;6.13;5.73;;;3.60;98.60;;;4.18;64.32;99095.75;5224606;28;20312;-54
2022/04/17 02:12:47;;;;;;;5.80;5.40;;;3.60;99.10;;;4.24;64.22;99091.31;5225913;28;20229;-51
2022/04/17 02:15:21;;;;;;;6.17;5.77;;;3.60;98.90;;;4.23;64.58;99084.44;5226617;28;20258;-54
2022/04/17 02:17:54;;;;;;;5.67;5.27;;;3.60;98.80;;;4.22;64.53;99092.78;5224751;28;20245;-54
2022/04/17 02:20:27;;;;;;;5.80;5.30;;;3.60;99.20;;;4.31;65.64;99088.63;5223995;28;20257;-53
2022/04/17 02:23:00;;;;;;;5.70;5.27;;;3.60;99.90;;;4.29;65.16;99082.50;5219238;28;20654;-54
2022/04/17 02:25:35;;;;;;;5.47;5.03;;;3.60;99.50;;;4.23;65.12;99079.38;5225526;28;20299;-51
2022/04/17 02:28:08;;;;;;;6.30;5.80;;;3.50;99.20;;;4.24;65.85;99071.06;5224625;28;20203;-53
2022/04/17 02:30:41;;;;;;;5.47;4.97;;;3.60;99.90;;;4.23;66.64;99064.19;5223749;28;20572;-53
2022/04/17 02:33:14;;;;;;;5.87;5.47;;;3.60;99.90;;;4.22;66.91;99057.34;5223270;28;20201;-56
2022/04/17 02:35:48;;;;;;;6.03;5.53;;;3.40;99.90;;;4.05;67.62;99068.28;5224907;28;20252;-53
2022/04/17 02:38:21;;;;;;;6.00;5.47;;;3.30;99.90;;;3.98;67.26;99066.78;5223574;28;20292;-51
2022/04/17 02:40:55;;;;;;;6.20;5.80;;;3.20;99.90;;;3.99;66.40;99067.66;5221152;28;20307;-50
2022/04/17 02:43:28;;;;;;;5.90;5.50;;;3.30;99.90;;;3.94;66.18;99066.28;5223262;28;20205;-54
2022/04/17 02:46:02;;;;;;;6.60;6.00;;;3.20;99.90;;;3.81;66.25;99052.41;5224553;28;20217;-51
2022/04/17 02:48:35;;;;;;;5.30;5.00;;;3.20;99.80;;;3.74;65.78;99059.19;5223390;28;20239;-51
2022/04/17 02:51:08;;;;;;;5.50;5.10;;;3.10;99.60;;;3.69;65.70;99055.28;5224463;28;20683;-50
2022/04/17 02:53:41;;;;;;;6.20;5.80;;;3.00;99.80;;;3.65;66.10;99048.16;5220920;28;20319;-51
2022/04/17 02:56:16;;;;;;;6.83;6.20;;;3.00;99.70;;;3.53;66.26;99053.72;5224047;28;20259;-51
2022/04/17 02:58:50;;;;;;;5.90;5.50;;;2.90;99.80;;;3.62;65.40;99048.72;5224300;28;20586;-54
2022/04/17 03:07:07;;;;;;;6.40;5.97;;;3.10;99.90;;;3.74;67.63;99041.50;5224900;28;20191;-52
2022/04/17 03:09:40;;;;;;;6.33;5.93;;;3.10;99.90;;;3.82;68.00;99048.25;5220613;28;20251;-54
2022/04/17 03:12:14;;;;;;;6.47;5.97;;;3.30;99.90;;;3.86;67.24;99034.28;5217848;28;20204;-55
2022/04/17 03:14:47;;;;;;;5.87;5.47;;;3.20;99.90;;;3.84;67.48;99034.13;5222487;28;20632;-51
2022/04/17 03:17:20;;;;;;;5.60;5.20;;;3.10;99.90;;;3.70;67.36;99032.72;5220848;28;20634;-54
2022/04/17 03:19:53;;;;;;;6.07;5.57;;;2.80;99.90;;;3.50;68.80;99030.66;5216239;28;20201;-52
2022/04/17 03:22:26;;;;;;;5.73;5.23;;;2.70;99.90;;;3.38;68.90;99024.38;5220615;28;20582;-55
2022/04/17 03:25:01;;;;;;;6.17;5.77;;;2.60;99.90;;;3.38;67.74;99027.78;5221361;28;20313;-53
2022/04/17 03:27:36;;;;;;;6.27;5.87;;;2.50;99.90;;;3.25;68.65;99026.34;5221407;28;20827;-51
2022/04/17 03:30:10;;;;;;;5.77;5.27;;;2.40;99.90;;;3.22;70.07;99031.97;5220306;28;20197;-51
2022/04/17 03:32:44;;;;;;;5.77;5.27;;;2.50;99.90;;;3.26;71.01;99026.50;5220443;28;20201;-51
2022/04/17 03:35:18;;;;;;;5.70;5.30;;;2.70;99.90;;;3.37;70.54;99030.13;5220240;28;20236;-51
2022/04/17 03:37:53;;;;;;;5.93;5.43;;;2.70;99.90;;;3.32;69.96;99028.75;5220809;28;20733;-52
2022/04/17 03:40:26;;;;;;;6.80;6.20;;;2.70;99.90;;;3.07;69.46;99028.75;5220362;28;20901;-52
2022/04/17 03:43:01;;;;;;;6.10;5.67;;;2.50;99.90;;;3.12;69.93;99027.59;5219848;28;20223;-55
2022/04/17 03:45:34;;;;;;;5.70;5.30;;;2.30;99.90;;;3.03;71.90;99035.81;5214638;28;20248;-52
2022/04/17 03:48:08;;;;;;;6.87;6.17;;;2.20;99.90;;;2.96;71.25;99034.28;5220053;28;20274;-52
2022/04/17 03:50:41;;;;;;;5.53;5.23;;;2.20;99.90;;;2.93;73.03;99029.81;5221174;28;20232;-55
2022/04/17 03:53:14;;;;;;;6.07;5.67;;;2.30;99.90;;;2.91;72.89;99035.44;5218938;28;20197;-55
2022/04/17 03:55:47;;;;;;;6.83;6.33;;;2.30;99.90;;;2.86;72.60;99036.56;5219535;28;20320;-53
2022/04/17 03:58:21;;;;;;;6.37;5.87;;;2.20;99.90;;;2.95;71.76;99027.47;5220053;28;20282;-51
2022/04/17 04:00:56;;;;;;;6.53;5.97;;;2.20;99.90;;;2.85;71.14;99034.78;5215608;28;20291;-51
2022/04/17 04:03:29;;;;;;;6.47;5.97;;;2.10;99.90;;;2.71;71.81;99030.81;5219887;28;20288;-50
2022/04/17 04:06:04;;;;;;;7.00;6.40;;;2.00;99.90;;;2.72;71.48;99032.63;5217869;28;20290;-51
2022/04/17 04:08:37;;;;;;;7.00;6.50;;;2.00;99.90;;;2.81;73.05;99033.59;5216824;28;20204;-52
2022/04/17 04:11:10;;;;;;;6.53;6.03;;;2.30;99.90;;;2.86;71.65;99029.91;5219013;28;20256;-51
2022/04/17 04:13:44;;;;;;;6.40;5.77;;;2.20;99.90;;;2.84;70.95;99028.84;5224758;28;20288;-52
2022/04/17 04:16:17;;;;;;;6.97;6.47;;;2.20;99.90;;;2.90;70.37;99023.56;5221304;28;20331;-53
2022/04/17 04:18:51;;;;;;;6.70;6.30;;;2.20;99.90;;;2.82;70.75;99020.22;5225486;28;20287;-50
2022/04/17 04:21:24;;;;;;;6.83;6.37;;;2.20;99.90;;;2.90;70.73;99015.97;5226011;28;20197;-50
2022/04/17 04:23:57;;;;;;;7.50;7.00;;;2.20;99.90;;;2.95;70.72;99019.91;5224388;28;20205;-52
2022/04/17 04:26:31;;;;;;;7.07;6.57;;;2.40;99.90;;;3.04;70.78;99018.31;5225805;28;20634;-52
2022/04/17 04:29:05;;;;;;;6.87;6.47;;;2.40;99.90;;;2.97;70.10;99020.94;5225782;28;20235;-53
2022/04/17 04:31:38;;;;;;;7.70;7.07;;;2.30;99.90;;;2.93;70.84;99018.81;5223941;28;20201;-53
2022/04/17 04:34:12;;;;;;;7.00;6.50;;;2.30;99.90;;;3.01;70.61;99014.59;5227383;28;20273;-51
2022/04/17 04:36:45;;;;;;;7.10;6.47;;;2.30;99.90;;;2.96;70.62;99011.56;5224235;28;20320;-53
2022/04/17 04:39:18;;;;;;;6.93;6.40;;;2.40;99.90;;;3.08;71.23;99015.38;5226631;28;20637;-51
2022/04/17 04:41:51;;;;;;;6.87;6.27;;;2.50;99.90;;;3.14;71.38;99008.44;5224501;28;20637;-52
2022/04/17 04:44:25;;;;;;;6.83;6.33;;;2.50;99.90;;;3.10;71.84;99007.97;5225996;28;20271;-54
2022/04/17 04:46:58;;;;;;;7.10;6.50;;;2.60;99.90;;;2.99;71.87;99008.47;5223501;28;20270;-52
2022/04/17 04:49:31;;;;;;;6.93;6.33;;;2.40;99.90;;;2.85;70.80;99017.13;5225516;28;20197;-50
2022/04/17 04:52:06;;;;;;;6.50;6.10;;;2.20;99.90;;;2.74;71.89;99012.56;5224676;28;20229;-51
2022/04/17 04:54:40;;;;;;;6.97;6.47;;;2.10;99.90;;;2.78;71.61;99017.22;5223011;28;20290;-54
2022/04/17 04:57:13;;;;;;;6.37;5.97;;;2.10;99.90;;;2.87;70.98;99020.72;5226072;28;20248;-54
2022/04/17 04:59:47;;;;;;;6.37;5.97;;;2.30;99.90;;;3.02;71.70;99019.78;5225017;28;20225;-53
2022/04/17 05:02:20;;;;;;;7.63;7.10;;;2.40;99.90;;;3.08;72.48;99022.06;5225927;28;20193;-50
2022/04/17 05:04:53;;;;;;;6.90;6.40;;;2.40;99.90;;;3.22;71.38;99016.81;5223726;28;20252;-53
2022/04/17 05:07:26;;;;;;;6.63;6.07;;;2.30;99.90;;;3.19;70.93;99025.72;5226377;28;20202;-50
2022/04/17 05:10:00;;;;;;;6.73;6.23;;;2.30;99.90;;;3.19;71.70;99019.03;5224531;28;20674;-53
2022/04/17 05:12:33;;;;;;;6.77;6.27;;;2.40;99.90;;;3.23;72.21;99025.28;5225273;28;20193;-51
2022/04/17 05:15:11;;;;;;;6.93;6.53;;;2.40;99.90;;;3.24;72.41;99032.16;5223530;28;20632;-52
2022/04/17 05:17:44;;;;;;;7.00;6.40;;;2.40;99.90;;;3.31;72.38;99039.59;5222884;28;20216;-54
2022/04/17 05:20:17;;;;;;;6.30;5.80;;;2.40;99.90;;;3.52;71.67;99056.09;5223862;28;20221;-54
2022/04/17 05:22:56;;;;;;;6.47;6.07;;;2.50;99.90;;;3.74;71.66;99064.25;5222583;28;20277;-55
2022/04/17 05:25:29;;;;;;;6.33;5.93;;;2.70;99.90;;;4.19;69.28;99057.94;5223873;28;20223;-52
2022/04/17 05:28:02;;;;;;;6.47;5.97;;;2.90;99.90;;;4.85;67.62;99056.91;5224574;28;20282;-52
2022/04/17 05:30:36;;;;;;;6.30;5.90;;;3.30;99.90;;;5.33;66.30;99052.28;5223638;28;20235;-52
2022/04/17 05:33:10;;;;;;;6.63;6.10;;;3.60;99.90;;;5.71;64.75;99039.84;5222274;28;20229;-52
2022/04/17 05:35:43;;;;;;;6.33;5.93;;;3.90;99.90;;;6.13;62.74;99037.06;5223935;28;20743;-53
2022/04/17 05:38:16;;;;;;;6.30;5.90;;;4.20;99.90;;;6.54;61.86;99042.50;5224298;28;20223;-52
2022/04/17 05:40:52;;;;;;;6.60;6.20;;;4.60;99.90;;;6.86;60.23;99052.16;5223805;28;20221;-53
2022/04/17 05:43:25;;;;;;;5.60;5.20;;;5.00;99.90;;;7.35;58.55;99036.22;5223310;28;20289;-51
2022/04/17 05:45:59;;;;;;;6.23;5.73;;;5.60;99.10;;;7.64;57.39;99042.22;5222403;28;21076;-53
2022/04/17 05:48:34;;;;;;;5.67;5.30;;;5.90;98.10;;;7.96;56.19;99033.94;5222967;28;20196;-54
2022/04/17 05:51:07;;;;;;;6.00;5.57;;;6.20;97.60;;;8.34;54.74;99036.31;5224525;28;20388;-55
2022/04/17 05:53:41;;;;;;;6.10;5.70;;;6.60;96.60;;;8.69;53.37;99031.66;5222427;28;20239;-54
2022/04/17 05:56:14;;;;;;;5.63;5.17;;;6.70;96.10;;;8.05;54.08;99037.28;5224079;28;20225;-51
2022/04/17 05:58:47;;;;;;;5.97;5.47;;;6.50;96.40;;;8.41;54.47;99038.63;5223602;28;20225;-51
2022/04/17 06:01:21;;;;;;;5.67;5.27;;;6.60;96.40;;;9.07;53.02;99028.84;5222090;28;20239;-51
2022/04/17 06:03:54;;;;;;;6.27;5.87;;;7.00;95.80;;;9.50;51.20;99024.66;5224047;28;20219;-52
2022/04/17 06:06:28;;;;;;;5.63;5.23;;;7.60;94.60;;;10.12;50.53;99026.13;5222922;28;20236;-51
2022/04/17 06:09:02;;;;;;;6.40;5.97;;;8.10;93.80;;;10.27;48.35;99031.59;5223769;28;21120;-52
2022/04/17 06:11:36;;;;;;;6.37;5.87;;;8.30;92.90;;;10.68;48.06;99018.50;5222922;28;20248;-54
2022/04/17 06:14:09;;;;;;;6.20;5.80;;;8.30;92.50;;;10.86;47.67;99020.66;5221291;28;20399;-51
2022/04/17 06:16:43;;;;;;;5.47;4.97;;;8.60;92.50;;;10.87;47.61;99024.97;5224843;28;20275;-51
2022/04/17 06:19:17;;;;;;;5.37;4.87;;;8.80;92.20;;;10.81;46.32;99015.19;5222597;28;20201;-54
2022/04/17 06:21:50;;;;;;;5.10;4.70;;;8.80;91.60;;;11.33;45.25;99015.56;5224207;28;20255;-56
2022/04/17 06:24:23;;;;;;;5.20;4.80;;;8.90;90.70;;;11.43;43.63;99016.34;5221969;28;20287;-56
2022/04/17 06:26:57;;;;;;;5.40;5.00;;;9.00;90.00;;;11.77;43.95;99010.22;5224015;28;20245;-53
2022/04/17 06:29:30;;;;;;;5.77;5.30;;;9.20;90.10;;;11.60;42.40;99007.34;5225075;28;20193;-52
2022/04/17 06:32:07;;;;;;;5.60;5.10;;;9.40;87.70;;;12.22;42.63;99011.66;5224695;28;20243;-53
2022/04/17 06:34:40;;;;;;;5.55;5.15;;;9.90;88.30;;;12.33;41.65;99005.59;5223698;28;20654;-54
2022/04/17 06:37:13;;;;;;;5.32;5.00;;;10.00;86.70;;;12.15;41.28;99010.34;5221947;28;20657;-53
2022/04/17 06:39:46;;;;;;;4.40;4.10;;;10.10;84.40;;;12.45;41.02;99003.91;5224971;28;20661;-51
2022/04/17 06:42:19;;;;;;;4.97;4.57;;;10.40;83.70;;;12.60;41.20;99006.59;5222997;28;20229;-55
2022/04/17 06:44:52;;;;;;;4.97;4.57;;;10.80;83.60;;;12.98;40.47;98998.00;5224493;28;20243;-57
2022/04/17 06:47:27;;;;;;;4.95;4.55;;;11.10;82.10;;;13.05;40.40;99003.66;5222550;28;20232;-51
2022/04/17 06:50:00;;;;;;;4.40;4.10;;;11.10;82.10;;;13.26;39.88;98995.59;5221746;28;20599;-52
2022/04/17 06:52:33;;;;;;;4.55;4.15;;;11.30;81.90;;;12.97;39.32;98989.41;5222633;28;20240;-53
2022/04/17 06:55:11;;;;;;;4.03;3.72;;;11.50;79.50;;;13.36;39.35;98985.13;5220569;28;20488;-54
2022/04/17 06:57:49;;;;;;;4.68;4.28;;;11.60;79.10;;;13.36;38.16;98990.25;5219490;28;20201;-51
2022/04/17 07:00:22;;;;;;;4.40;4.00;;;11.40;78.30;;;13.46;37.38;98982.34;5222097;28;20251;-51
2022/04/17 07:02:57;;;;;;;4.60;4.20;;;11.40;78.50;;;13.66;37.13;98982.75;5222288;28;20653;-53
2022/04/17 07:05:31;;;;;;;4.22;3.83;;;11.60;77.90;;;13.32;39.08;98978.03;5222931;28;20216;-55
2022/04/17 07:08:06;;;;;;;4.68;4.30;;;11.60;78.60;;;13.86;37.20;98978.84;5218473;28;20248;-55
2022/04/17 07:10:41;;;;;;;4.60;4.30;;;12.00;77.40;;;14.00;37.14;98977.13;5219993;28;20638;-55
2022/04/17 07:13:15;;;;;;;4.28;3.90;;;12.10;77.20;;;14.48;37.18;98973.16;5222309;28;20200;-52
2022/04/17 07:15:49;;;;;;;4.80;4.40;;;12.40;77.00;;;14.54;36.61;98968.44;5224069;28;20216;-53
2022/04/17 07:18:23;;;;;;;4.13;3.83;;;12.70;75.60;;;14.79;35.41;98961.38;5222804;28;20224;-54
2022/04/17 07:20:56;;;;;;;3.45;3.15;;;12.80;73.80;;;14.67;34.61;98968.34;5217292;28;20192;-54
2022/04/17 07:23:30;;;;;;;3.55;3.25;;;13.00;72.60;;;15.23;33.45;98959.56;5219965;28;20233;-53
2022/04/17 07:26:03;;;;;;;3.85;3.50;;;13.00;72.00;;;15.02;34.02;98959.22;5223962;28;20358;-55
2022/04/17 07:28:37;;;;;;;3.80;3.50;;;12.90;72.10;;;15.29;33.26;98959.91;5220746;28;20279;-54
2022/04/17 07:31:10;;;;;;;3.38;3.10;;;13.40;70.00;;;15.61;33.29;98964.25;5217446;28;20666;-55
2022/04/17 07:33:45;;;;;;;3.83;3.53;;;13.70;70.30;;;15.59;32.93;98959.81;5220507;28;20205;-58
2022/04/17 07:36:19;;;;;;;3.75;3.33;;;14.10;68.60;;;15.30;32.45;98951.34;5222176;28;20716;-57
2022/04/17 07:38:52;;;;;;;3.05;2.83;;;13.60;68.20;;;15.26;32.78;98963.19;5223157;28;20213;-53
2022/04/17 07:41:25;;;;;;;3.05;2.85;;;13.60;68.60;;;14.97;33.92;98945.22;5223101;28;20190;-54
2022/04/17 07:43:58;;;;;;;3.40;3.10;;;13.30;69.50;;;14.79;32.84;98945.94;5220555;28;20255;-54
2022/04/17 07:46:31;;;;;;;3.50;3.20;;;13.60;67.90;;;14.72;32.23;98954.06;5222039;28;20296;-51
2022/04/17 07:49:06;;;;;;;3.42;3.13;;;13.50;65.20;;;14.57;33.09;98940.31;5222141;28;20221;-51
2022/04/17 07:51:39;;;;;;;3.28;3.08;;;13.50;67.50;;;14.60;33.65;98945.66;5221417;28;20660;-52
2022/04/17 07:54:12;;;;;;;3.10;2.90;;;13.80;67.10;;;14.85;34.40;98951.44;5221435;28;20296;-56
2022/04/17 07:56:45;;;;;;;3.17;2.97;;;14.00;68.40;;;13.90;32.33;98953.41;5224242;28;20308;-52
2022/04/17 07:59:18;;;;;;;3.30;3.00;;;13.00;63.40;;;13.79;33.99;98946.72;5222773;28;20742;-56
2022/04/17 08:02:01;;;;;;;2.90;2.70;;;13.00;67.60;;;13.68;33.60;98942.63;5223634;28;20728;-51
2022/04/17 08:04:35;;;;;;;3.33;3.03;;;12.90;65.20;;;13.51;32.80;98939.88;5224910;28;20200;-51
2022/04/17 08:07:08;;;;;;;3.40;3.20;;;12.80;63.80;;;13.79;33.28;98927.84;5222484;28;20295;-51
2022/04/17 08:09:42;;;;;;;3.25;2.85;;;13.20;64.20;;;13.85;32.55;98933.38;5224584;28;20252;-53
2022/04/17 08:12:15;;;;;;;3.38;3.10;;;13.40;63.80;;;13.33;33.25;98932.69;5224665;28;20646;-51
2022/04/17 08:14:48;;;;;;;3.47;3.10;;;12.90;64.10;;;13.74;32.85;98937.88;5225384;28;20288;-51
2022/04/17 08:17:21;;;;;;;2.80;2.60;;;13.10;64.30;;;14.07;33.01;98940.72;5224900;28;20731;-54
2022/04/17 08:19:55;;;;;;;3.33;3.13;;;13.60;64.60;;;14.12;32.23;98945.34;5225027;28;20201;-54
2022/04/17 08:22:28;;;;;;;2.83;2.63;;;13.70;62.10;;;13.94;32.07;98932.25;5225596;28;20200;-54
2022/04/17 08:25:02;;;;;;;3.10;2.90;;;13.50;63.10;;;14.18;32.83;98931.97;5222862;28;20216;-53
2022/04/17 08:27:35;;;;;;;2.97;2.78;;;13.80;63.70;;;14.22;31.96;98938.16;5226033;28;20280;-52
2022/04/17 08:30:08;;;;;;;2.60;2.50;;;13.80;61.70;;;14.35;32.21;98927.84;5216978;28;20304;-52
2022/04/17 08:32:48;;;;;;;2.88;2.67;;;13.80;62.70;;;14.70;31.39;98929.94;5220120;28;20292;-53
2022/04/17 08:35:23;;;;;;;2.67;2.47;;;14.10;61.90;;;14.71;32.16;98931.72;5223332;28;20267;-54
2022/04/17 08:37:57;;;;;;;3.40;3.10;;;14.10;62.20;;;14.68;31.21;98928.06;5223825;28;20311;-53
2022/04/17 08:40:31;;;;;;;3.15;2.85;;;14.10;61.80;;;14.75;30.91;98938.81;5224722;28;20979;-56
2022/04/17 08:43:07;;;;;;;3.22;2.88;;;14.20;60.60;;;14.15;31.58;98922.38;5221556;28;20254;-51
2022/04/17 08:45:40;;;;;;;2.70;2.50;;;13.90;60.30;;;14.41;32.27;98912.75;5226247;28;20251;-51
2022/04/17 08:48:13;;;;;;;3.00;2.80;;;13.90;62.40;;;14.53;31.92;98910.03;5225818;28;20645;-52
2022/04/17 08:50:51;;;;;;;2.35;2.22;;;14.00;61.40;;;14.50;30.98;98910.72;5221740;28;20297;-52
2022/04/17 08:53:26;;;;;;;3.22;2.63;;;14.20;61.70;;;14.61;31.48;98913.97;5223183;28;20293;-54
2022/04/17 08:56:00;;;;;;;2.97;2.78;;;14.00;61.80;;;14.20;31.62;98899.53;5224946;28;20236;-57
2022/04/17 08:58:34;;;;;;;3.17;2.97;;;13.70;62.30;;;14.49;32.28;98905.50;5223701;28;20602;-52
2022/04/17 09:01:12;;;;;;;3.22;2.80;;;14.00;63.40;;;14.52;31.50;98891.16;5223299;28;20651;-55
2022/04/17 09:03:47;;;;;;;4.10;2.92;;;14.20;61.30;;;14.83;30.84;98880.06;5224012;28;20194;-51
2022/04/17 09:06:22;;;;;;;2.72;2.53;;;14.40;60.70;;;14.76;31.88;98868.50;5222127;28;20274;-51
2022/04/17 09:09:00;;;;;;;3.15;2.95;;;14.30;62.30;;;14.50;30.05;98866.09;5220650;28;20259;-52
2022/04/17 09:11:35;;;;;;;2.28;2.15;;;14.40;59.40;;;14.37;30.52;98861.94;5219592;28;20251;-54
2022/04/17 09:14:08;;;;;;;3.03;2.63;;;13.90;59.70;;;14.14;30.60;98853.75;5226761;28;20728;-51
2022/04/17 09:16:42;;;;;;;2.88;2.58;;;13.70;59.20;;;14.24;29.47;98839.75;5225244;28;20241;-54
2022/04/17 09:19:18;;;;;;;2.47;2.28;;;13.90;58.90;;;14.36;30.20;98837.00;5222834;28;20243;-54
2022/04/17 09:21:56;;;;;;;2.70;2.55;;;13.90;58.50;;;14.36;29.87;98848.16;5222708;28;20291;-51
2022/04/17 09:24:29;;;;;;;2.80;2.60;;;14.00;59.10;;;14.16;30.83;98844.47;5223958;28;20224;-52
2022/04/17 09:27:03;;;;;;;2.55;2.35;;;13.80;59.60;;;14.35;32.32;98837.81;5224574;28;20201;-54
2022/04/17 09:29:38;;;;;;;2.45;2.35;;;13.90;64.10;;;14.62;30.96;98838.53;5223179;28;20280;-53
2022/04/17 09:32:14;;;;;;;2.75;2.55;;;14.30;60.30;;;14.82;29.51;98822.56;5222214;28;20239;-54
2022/04/17 09:34:52;;;;;;;2.50;2.30;;;14.40;58.60;;;14.70;30.96;98826.09;5219937;28;20251;-55
2022/04/17 09:37:35;;;;;;;3.55;2.70;;;14.40;59.30;;;14.87;30.94;98825.34;5224132;28;20594;-52
2022/04/17 09:40:10;;;;;;;3.95;2.40;;;14.50;59.50;;;14.80;29.58;98833.56;5224590;28;20245;-56
2022/04/17 09:42:43;;;;;;;2.90;2.63;;;14.30;58.50;;;14.83;29.80;98818.28;5222025;28;20312;-52
2022/04/17 09:45:16;;;;;;;3.05;2.75;;;14.30;58.80;;;14.79;30.76;98819.81;5222676;28;20222;-53
2022/04/17 09:47:56;;;;;;;2.80;2.60;;;14.40;60.00;;;14.78;29.36;98810.28;5224807;28;20283;-51
2022/04/17 09:50:32;;;;;;;2.90;2.65;;;14.50;57.80;;;14.77;30.09;98817.94;5224851;28;20263;-56
2022/04/17 09:53:09;;;;;;;3.10;2.90;;;14.40;59.30;;;15.02;29.55;98804.72;5222991;28;20224;-54
2022/04/17 09:55:43;;;;;;;2.70;2.50;;;14.70;58.30;;;15.09;29.41;98807.72;5217647;28;20222;-54
2022/04/17 09:58:21;;;;;;;2.92;2.60;;;14.70;58.00;;;15.12;29.09;98809.59;5221845;28;20268;-55
2022/04/17 10:00:58;;;;;;;2.90;2.70;;;14.80;57.80;;;14.60;28.54;98809.28;5218716;28;20288;-53
2022/04/17 10:03:31;;;;;;;2.90;2.70;;;14.40;57.10;;;14.52;29.29;98805.38;5217621;28;20615;-52
2022/04/17 10:06:05;;;;;;;2.80;2.60;;;14.20;57.80;;;14.73;29.45;98796.28;5222471;28;20593;-53
2022/04/17 10:08:44;;;;;;;2.28;2.15;;;14.30;58.50;;;14.75;28.26;98796.38;5218188;28;20281;-53
2022/04/17 10:11:18;;;;;;;3.05;2.70;;;14.50;56.70;;;14.64;30.98;98796.66;5219906;28;20362;-53
2022/04/17 10:13:51;;;;;;;4.03;2.88;;;14.40;58.90;;;14.77;28.87;98803.38;5220769;28;20212;-53
2022/04/17 10:16:27;;;;;;;2.67;2.47;;;14.60;56.40;;;14.99;29.33;98794.25;5223604;28;20260;-50
2022/04/17 10:19:06;;;;;;;2.92;2.28;;;14.70;57.80;;;15.11;28.50;98784.66;5220947;28;20243;-53
2022/04/17 10:21:40;;;;;;;2.53;2.42;;;14.80;56.60;;;14.93;29.60;98788.78;5219007;28;20193;-52
2022/04/17 10:24:16;;;;;;;2.50;2.30;;;14.70;57.60;;;15.17;30.33;98786.66;5220743;28;20201;-52
2022/04/17 10:26:52;;;;;;;3.10;2.90;;;14.80;58.50;;;15.22;31.70;98786.13;5221172;28;20217;-51
2022/04/17 10:29:31;;;;;;;2.75;2.55;;;14.90;60.20;;;15.31;30.95;98786.59;5217637;28;20236;-52
2022/04/17 10:32:43;;;;;;;3.42;3.13;;;15.00;60.00;;;15.14;30.59;98783.91;5221518;28;20681;-51
2022/04/17 10:35:28;;;;;;;3.40;3.20;;;14.80;59.20;;;15.22;31.58;98783.53;5219066;28;20220;-54
2022/04/17 10:38:25;;;;;;;3.58;3.28;;;14.90;59.90;;;15.21;30.81;98784.31;5222632;28;20296;-52
2022/04/17 10:41:03;;;;;;;8.10;6.75;;;14.80;59.60;;;15.23;31.64;98774.13;5218415;28;20229;-54
2022/04/17 10:43:59;;;;;;;17.40;8.95;;;14.80;61.60;;;14.97;30.38;98775.28;5220024;28;20193;-54
2022/04/17 10:46:47;;;;;;;2.92;2.72;;;14.80;58.90;;;15.12;29.75;98773.53;5221018;28;20256;-52
2022/04/17 10:49:22;;;;;;;7.63;6.97;;;14.70;57.90;;;15.38;29.53;98761.16;5220886;28;20190;-51
2022/04/17 10:51:59;;;;;;;4.68;4.28;;;15.00;57.90;;;15.23;30.28;98768.97;5217977;28;20277;-53
2022/04/17 10:54:51;;;;;;;9.05;8.15;;;14.80;58.80;;;14.99;32.27;98747.91;5218514;28;20291;-54
2022/04/17 10:57:27;;;;;;;4.20;3.90;;;14.60;60.90;;;15.09;31.93;98748.50;5220371;28;20193;-51
2022/04/17 11:00:27;;;;;;;9.38;8.50;;;14.70;60.60;;;14.85;30.75;98745.50;5221227;28;20306;-52
2022/04/17 11:03:26;;;;;;;5.10;4.68;;;14.50;59.20;;;14.93;31.63;98743.31;5219568;28;20197;-55
2022/04/17 11:06:30;;;;;;;3.33;3.08;;;14.40;60.80;;;14.77;30.96;98751.91;5224012;28;20670;-51
2022/04/17 11:09:12;;;;;;;3.10;2.90;;;14.40;60.60;;;15.06;30.66;98747.47;5218059;28;20354;-51
2022/04/17 11:11:46;;;;;;;3.38;3.08;;;14.60;59.90;;;15.17;31.62;98728.31;5216486;28;20232;-52